createdAt,value
2017-09-28T00:01:42.906Z,20.90
2017-09-28T00:04:11.959Z,23.77
2017-09-28T00:06:40.991Z,21.17
2017-09-28T00:09:10.039Z,19.97
2017-09-28T00:11:39.106Z,23.87
2017-09-28T00:14:08.146Z,17.43
2017-09-28T00:16:38.150Z,19.83
2017-09-28T00:19:07.227Z,19.13
2017-09-28T00:21:36.296Z,13.30
2017-09-28T00:24:05.350Z,15.40
2017-09-28T00:26:34.440Z,11.30
2017-09-28T00:29:04.472Z,12.10
2017-09-28T00:31:34.416Z,13.27
2017-09-28T00:34:04.417Z,14.47
2017-09-28T00:36:34.452Z,13.43
2017-09-28T00:39:03.491Z,13.40
2017-09-28T00:41:33.551Z,14.33
2017-09-28T00:44:02.602Z,14.30
2017-09-28T00:46:31.647Z,15.77
2017-09-28T00:49:00.720Z,16.57
2017-09-28T00:51:29.810Z,13.53
2017-09-28T00:53:59.462Z,14.63
2017-09-28T00:56:28.518Z,17.73
2017-09-28T00:58:57.618Z,20.70
2017-09-28T01:01:26.672Z,21.80
2017-09-28T01:03:55.708Z,18.27
2017-09-28T01:06:24.809Z,17.30
2017-09-28T01:08:54.522Z,18.43
2017-09-28T01:11:23.590Z,14.30
2017-09-28T01:13:52.714Z,16.00
2017-09-28T01:16:21.860Z,14.93
2017-09-28T01:18:50.916Z,12.30
2017-09-28T01:21:19.964Z,13.40
2017-09-28T01:23:49.030Z,16.13
2017-09-28T01:26:18.976Z,14.07
2017-09-28T01:28:48.051Z,12.87
2017-09-28T01:31:17.108Z,16.87
2017-09-28T01:33:47.092Z,14.27
2017-09-28T01:36:16.190Z,18.63
2017-09-28T01:38:45.235Z,20.40
2017-09-28T01:41:14.299Z,23.97
2017-09-28T01:43:43.352Z,29.30
2017-09-28T01:46:12.387Z,31.60
2017-09-28T01:48:41.451Z,30.30
2017-09-28T01:51:10.494Z,39.27
2017-09-28T01:53:39.543Z,57.60
2017-09-28T01:56:08.647Z,80.63
2017-09-28T01:58:42.068Z,73.67
2017-09-28T02:01:11.112Z,56.53
2017-09-28T02:03:40.180Z,67.20
2017-09-28T02:06:09.234Z,65.60
2017-09-28T02:08:38.343Z,56.23
2017-09-28T02:11:07.436Z,52.27
2017-09-28T02:13:36.487Z,44.50
2017-09-28T02:16:05.547Z,32.70
2017-09-28T02:18:34.610Z,25.40
2017-09-28T02:21:03.653Z,20.67
2017-09-28T02:23:32.697Z,15.37
2017-09-28T02:26:01.770Z,17.93
2017-09-28T02:28:31.778Z,17.10
2017-09-28T02:31:00.870Z,19.83
2017-09-28T02:33:29.914Z,17.10
2017-09-28T02:35:58.945Z,18.50
2017-09-28T02:38:28.099Z,22.67
2017-09-28T02:40:57.135Z,24.27
2017-09-28T02:43:26.192Z,21.37
2017-09-28T02:45:55.232Z,16.33
2017-09-28T02:48:24.278Z,21.57
2017-09-28T02:50:53.311Z,21.10
2017-09-28T02:53:22.380Z,20.33
2017-09-28T02:55:51.413Z,17.10
2017-09-28T02:58:20.450Z,16.20
2017-09-28T03:00:49.539Z,16.00
2017-09-28T03:03:19.523Z,17.67
2017-09-28T03:05:48.554Z,18.73
2017-09-28T03:08:17.606Z,13.50
2017-09-28T03:10:46.755Z,14.50
2017-09-28T03:13:15.791Z,14.30
2017-09-28T03:15:44.836Z,14.37
2017-09-28T03:18:13.930Z,13.90
2017-09-28T03:20:43.025Z,17.40
2017-09-28T03:23:12.055Z,19.00
2017-09-28T03:25:41.110Z,25.67
2017-09-28T03:28:10.142Z,53.20
2017-09-28T03:30:39.282Z,58.33
2017-09-28T03:33:08.399Z,65.80
2017-09-28T03:35:37.433Z,59.47
2017-09-28T03:38:06.489Z,73.90
2017-09-28T03:40:35.535Z,67.10
2017-09-28T03:43:04.588Z,61.47
2017-09-28T03:45:33.635Z,86.97
2017-09-28T03:48:02.677Z,67.50
2017-09-28T03:50:31.714Z,55.93
2017-09-28T03:53:00.885Z,69.33
2017-09-28T03:55:29.902Z,49.53
2017-09-28T03:57:58.933Z,45.47
2017-09-28T04:00:28.006Z,55.77
2017-09-28T04:02:57.097Z,33.87
2017-09-28T04:05:26.129Z,19.90
2017-09-28T04:07:55.172Z,18.77
2017-09-28T04:10:24.279Z,18.27
2017-09-28T04:12:53.338Z,17.90
2017-09-28T04:15:22.403Z,23.30
2017-09-28T04:17:51.483Z,22.30
2017-09-28T04:20:20.530Z,24.90
2017-09-28T04:22:49.570Z,25.13
2017-09-28T04:25:18.622Z,19.13
2017-09-28T04:27:47.663Z,17.97
2017-09-28T04:30:16.726Z,19.53
2017-09-28T04:32:46.693Z,32.57
2017-09-28T04:35:15.724Z,25.00
2017-09-28T04:37:44.787Z,19.33
2017-09-28T04:40:16.115Z,24.13
2017-09-28T04:42:46.093Z,37.50
2017-09-28T04:45:15.126Z,18.37
2017-09-28T04:47:44.227Z,18.50
2017-09-28T04:50:13.294Z,23.10
2017-09-28T04:52:42.376Z,43.53
2017-09-28T04:55:11.538Z,62.90
2017-09-28T04:57:40.598Z,53.90
2017-09-28T05:00:09.655Z,55.67
2017-09-28T05:02:38.666Z,50.80
2017-09-28T05:05:07.790Z,56.70
2017-09-28T05:07:36.831Z,58.47
2017-09-28T05:10:06.075Z,46.80
2017-09-28T05:12:35.122Z,39.53
2017-09-28T05:15:04.244Z,40.17
2017-09-28T05:17:33.425Z,27.63
2017-09-28T05:20:03.581Z,30.27
2017-09-28T05:22:32.951Z,22.73
2017-09-28T05:25:02.211Z,25.90
2017-09-28T05:27:31.250Z,24.47
2017-09-28T05:30:00.286Z,18.90
2017-09-28T05:32:29.483Z,19.57
2017-09-28T05:34:58.535Z,18.33
2017-09-28T05:37:27.644Z,17.97
2017-09-28T05:39:57.557Z,12.47
2017-09-28T05:42:26.640Z,12.30
2017-09-28T05:44:55.762Z,12.43
2017-09-28T05:47:25.817Z,15.70
2017-09-28T05:49:54.871Z,11.50
2017-09-28T05:52:23.912Z,15.53
2017-09-28T05:54:53.008Z,14.00
2017-09-28T05:57:22.033Z,15.67
2017-09-28T05:59:51.093Z,14.97
2017-09-28T06:02:20.137Z,17.70
2017-09-28T06:04:49.410Z,13.10
2017-09-28T06:07:18.458Z,13.50
2017-09-28T06:09:47.555Z,11.90
2017-09-28T06:12:16.566Z,11.67
2017-09-28T06:14:45.614Z,12.80
2017-09-28T06:17:14.688Z,11.57
2017-09-28T06:19:46.279Z,12.00
2017-09-28T06:22:19.655Z,12.13
2017-09-28T06:24:48.987Z,11.43
2017-09-28T06:27:18.407Z,12.03
2017-09-28T06:29:47.477Z,12.10
2017-09-28T06:32:16.541Z,10.70
2017-09-28T06:34:45.622Z,12.97
2017-09-28T06:37:14.670Z,10.87
2017-09-28T06:39:43.754Z,14.60
2017-09-28T06:42:12.816Z,9.27
2017-09-28T06:44:41.908Z,9.10
2017-09-28T06:47:10.966Z,14.67
2017-09-28T06:49:40.046Z,10.13
2017-09-28T06:52:09.065Z,9.43
2017-09-28T06:54:38.289Z,9.43
2017-09-28T06:57:07.334Z,9.37
2017-09-28T06:59:40.072Z,7.90
2017-09-28T07:02:22.762Z,12.63
2017-09-28T07:04:53.301Z,10.73
2017-09-28T07:07:23.706Z,9.50
2017-09-28T07:09:53.051Z,8.93
2017-09-28T07:12:22.114Z,8.03
2017-09-28T07:14:52.813Z,6.93
2017-09-28T07:17:22.810Z,9.00
2017-09-28T07:19:53.413Z,10.33
2017-09-28T07:22:23.181Z,8.57
2017-09-28T07:24:52.234Z,9.10
2017-09-28T07:27:22.126Z,7.97
2017-09-28T07:29:51.839Z,8.33
2017-09-28T07:32:20.931Z,8.13
2017-09-28T07:34:52.698Z,8.03
2017-09-28T07:37:22.549Z,7.70
2017-09-28T07:39:51.613Z,7.90
2017-09-28T07:42:21.521Z,7.37
2017-09-28T07:44:50.569Z,7.50
2017-09-28T07:47:20.811Z,7.70
2017-09-28T07:49:51.022Z,8.20
2017-09-28T07:52:20.102Z,7.10
2017-09-28T07:54:50.119Z,7.37
2017-09-28T07:57:20.447Z,7.50
2017-09-28T07:59:49.482Z,6.93
2017-09-28T08:02:19.571Z,7.70
2017-09-28T08:04:48.727Z,6.90
2017-09-28T08:07:17.776Z,6.40
2017-09-28T08:09:46.830Z,6.57
2017-09-28T08:12:15.879Z,7.57
2017-09-28T08:14:44.930Z,8.07
2017-09-28T08:17:13.967Z,7.50
2017-09-28T08:19:43.033Z,7.50
2017-09-28T08:22:12.151Z,6.60
2017-09-28T08:24:41.239Z,6.80
2017-09-28T08:27:10.290Z,7.90
2017-09-28T08:29:39.338Z,9.07
2017-09-28T08:32:08.389Z,7.10
2017-09-28T08:34:37.443Z,7.40
2017-09-28T08:37:06.478Z,7.20
2017-09-28T08:39:35.529Z,6.70
2017-09-28T08:42:04.595Z,6.43
2017-09-28T08:44:33.660Z,7.80
2017-09-28T08:47:02.697Z,7.20
2017-09-28T08:49:33.757Z,7.40
2017-09-28T08:52:02.755Z,8.23
2017-09-28T08:54:31.811Z,6.67
2017-09-28T08:57:00.880Z,9.20
2017-09-28T08:59:29.906Z,7.87
2017-09-28T09:01:58.967Z,7.03
2017-09-28T09:04:29.349Z,8.70
2017-09-28T09:06:58.727Z,8.53
2017-09-28T09:09:27.854Z,8.87
2017-09-28T09:11:57.318Z,8.67
2017-09-28T09:14:26.458Z,12.97
2017-09-28T09:16:55.506Z,8.70
2017-09-28T09:19:24.574Z,9.63
2017-09-28T09:21:53.623Z,8.33
2017-09-28T09:24:22.660Z,8.07
2017-09-28T09:26:52.729Z,9.20
2017-09-28T09:29:21.799Z,8.40
2017-09-28T09:31:51.498Z,7.50
2017-09-28T09:34:20.534Z,8.37
2017-09-28T09:36:50.634Z,8.57
2017-09-28T09:39:20.606Z,7.83
2017-09-28T09:41:49.651Z,8.27
2017-09-28T09:44:19.587Z,8.23
2017-09-28T09:46:48.627Z,8.63
2017-09-28T09:49:17.670Z,7.70
2017-09-28T09:51:46.739Z,7.37
2017-09-28T09:54:15.803Z,7.13
2017-09-28T09:56:45.673Z,8.17
2017-09-28T09:59:14.723Z,8.97
2017-09-28T10:01:44.477Z,11.20
2017-09-28T10:04:14.084Z,8.23
2017-09-28T10:06:49.294Z,7.30
2017-09-28T10:09:24.375Z,7.50
2017-09-28T10:11:58.594Z,7.37
2017-09-28T10:14:30.283Z,7.30
2017-09-28T10:16:59.317Z,7.10
2017-09-28T10:19:30.762Z,8.07
2017-09-28T10:22:00.577Z,6.57
2017-09-28T10:24:29.800Z,7.27
2017-09-28T10:27:01.872Z,6.90
2017-09-28T10:29:31.977Z,6.93
2017-09-28T10:32:01.002Z,7.50
2017-09-28T10:34:33.135Z,7.17
2017-09-28T10:37:03.284Z,7.10
2017-09-28T10:39:32.357Z,6.97
2017-09-28T10:42:04.792Z,6.90
2017-09-28T10:44:34.807Z,8.07
2017-09-28T10:47:03.847Z,8.27
2017-09-28T10:49:35.151Z,7.67
2017-09-28T10:52:05.104Z,10.33
2017-09-28T10:54:34.171Z,8.50
2017-09-28T10:57:04.589Z,7.13
2017-09-28T10:59:34.511Z,7.60
2017-09-28T11:02:03.539Z,11.40
2017-09-28T11:04:35.330Z,8.03
2017-09-28T11:07:05.205Z,7.23
2017-09-28T11:09:34.289Z,7.00
2017-09-28T11:12:04.995Z,6.97
2017-09-28T11:14:34.837Z,6.80
2017-09-28T11:17:03.970Z,6.13
2017-09-28T11:19:34.561Z,7.70
2017-09-28T11:22:06.143Z,6.73
2017-09-28T11:24:35.941Z,6.17
2017-09-28T11:27:08.413Z,5.87
2017-09-28T11:29:37.894Z,7.40
2017-09-28T11:32:06.982Z,6.20
2017-09-28T11:34:36.907Z,6.50
2017-09-28T11:37:05.956Z,7.00
2017-09-28T11:39:35.007Z,7.10
2017-09-28T11:42:04.428Z,6.53
2017-09-28T11:44:33.503Z,8.20
2017-09-28T11:47:04.644Z,7.43
2017-09-28T11:49:34.447Z,6.33
2017-09-28T11:52:03.477Z,6.33
2017-09-28T11:54:34.259Z,6.30
2017-09-28T11:57:03.564Z,5.43
2017-09-28T11:59:32.667Z,6.73
2017-09-28T12:02:04.743Z,6.20
2017-09-28T12:04:35.332Z,6.33
2017-09-28T12:07:04.419Z,6.23
2017-09-28T12:09:35.858Z,7.33
2017-09-28T12:12:05.636Z,6.00
2017-09-28T12:14:34.667Z,6.57
2017-09-28T12:17:05.546Z,6.60
2017-09-28T12:19:35.381Z,7.33
2017-09-28T12:22:04.412Z,5.83
2017-09-28T12:24:37.769Z,7.17
2017-09-28T12:27:06.820Z,7.80
2017-09-28T12:29:36.964Z,5.00
2017-09-28T12:32:07.849Z,5.00
2017-09-28T12:34:36.868Z,5.77
2017-09-28T12:37:05.911Z,4.80
2017-09-28T12:39:34.990Z,5.80
2017-09-28T12:42:04.032Z,5.10
2017-09-28T12:44:33.075Z,5.10
2017-09-28T12:47:02.767Z,4.57
2017-09-28T12:49:31.823Z,5.23
2017-09-28T12:52:00.858Z,5.33
2017-09-28T12:54:29.952Z,5.30
2017-09-28T12:56:59.018Z,5.43
2017-09-28T12:59:28.079Z,9.17
2017-09-28T13:01:57.189Z,5.07
2017-09-28T13:04:26.207Z,8.93
2017-09-28T13:06:55.252Z,4.67
2017-09-28T13:09:24.326Z,5.67
2017-09-28T13:11:53.347Z,4.10
2017-09-28T13:14:22.415Z,7.87
2017-09-28T13:16:51.487Z,6.00
2017-09-28T13:19:20.534Z,5.63
2017-09-28T13:21:49.640Z,5.30
2017-09-28T13:24:18.737Z,4.50
2017-09-28T13:26:47.995Z,4.50
2017-09-28T13:29:17.059Z,4.80
2017-09-28T13:31:46.119Z,5.10
2017-09-28T13:34:15.319Z,7.80
2017-09-28T13:36:44.392Z,4.40
2017-09-28T13:39:13.442Z,5.80
2017-09-28T13:41:42.532Z,8.60
2017-09-28T13:44:11.571Z,4.47
2017-09-28T13:46:40.647Z,4.13
2017-09-28T13:49:09.709Z,4.67
2017-09-28T13:51:38.727Z,4.93
2017-09-28T13:54:07.812Z,4.13
2017-09-28T13:56:36.858Z,4.40
2017-09-28T13:59:05.979Z,4.23
2017-09-28T14:01:35.102Z,5.00
2017-09-28T14:04:04.138Z,3.87
2017-09-28T14:06:33.228Z,3.80
2017-09-28T14:09:02.301Z,5.10
2017-09-28T14:11:31.374Z,3.90
2017-09-28T14:14:00.570Z,4.47
2017-09-28T14:16:29.678Z,5.00
2017-09-28T14:18:58.760Z,3.40
2017-09-28T14:21:27.900Z,4.53
2017-09-28T14:23:56.968Z,4.93
2017-09-28T14:26:26.001Z,5.60
2017-09-28T14:28:55.079Z,4.53
2017-09-28T14:31:24.127Z,5.10
2017-09-28T14:33:53.221Z,5.03
2017-09-28T14:36:22.320Z,5.70
2017-09-28T14:38:51.512Z,5.60
2017-09-28T14:41:20.555Z,4.40
2017-09-28T14:43:49.599Z,5.07
2017-09-28T14:46:18.749Z,5.50
2017-09-28T14:48:47.798Z,4.90
2017-09-28T14:51:16.843Z,5.87
2017-09-28T14:53:46.893Z,5.90
2017-09-28T14:56:15.954Z,5.60
2017-09-28T14:58:45.092Z,5.00
2017-09-28T15:01:14.207Z,5.07
2017-09-28T15:03:46.130Z,6.03
2017-09-28T15:06:16.135Z,5.23
2017-09-28T15:08:45.216Z,5.57
2017-09-28T15:11:15.299Z,6.23
2017-09-28T15:13:44.345Z,5.47
2017-09-28T15:16:13.416Z,5.23
2017-09-28T15:18:42.458Z,6.10
2017-09-28T15:21:11.498Z,5.13
2017-09-28T15:23:40.558Z,5.27
2017-09-28T15:26:09.607Z,6.30
2017-09-28T15:28:38.650Z,5.53
2017-09-28T15:31:07.701Z,5.57
2017-09-28T15:33:36.741Z,5.73
2017-09-28T15:36:05.787Z,4.83
2017-09-28T15:38:34.873Z,4.83
2017-09-28T15:41:04.932Z,6.77
2017-09-28T15:43:34.055Z,7.30
2017-09-28T15:46:03.861Z,6.50
2017-09-28T15:48:33.586Z,8.03
2017-09-28T15:51:02.855Z,4.97
2017-09-28T15:53:35.233Z,5.47
2017-09-28T15:56:04.429Z,5.50
2017-09-28T15:58:33.622Z,6.60
2017-09-28T16:01:03.031Z,6.63
2017-09-28T16:03:32.882Z,6.07
2017-09-28T16:06:02.286Z,6.13
2017-09-28T16:08:31.387Z,4.77
2017-09-28T16:11:00.437Z,5.10
2017-09-28T16:13:30.505Z,5.30
2017-09-28T16:16:00.067Z,5.40
2017-09-28T16:18:29.123Z,6.43
2017-09-28T16:20:58.177Z,7.30
2017-09-28T16:23:27.264Z,6.10
2017-09-28T16:25:56.317Z,5.73
2017-09-28T16:28:25.415Z,12.70
2017-09-28T16:30:54.452Z,10.13
2017-09-28T16:33:23.509Z,14.67
2017-09-28T16:35:52.604Z,17.23
2017-09-28T16:38:21.652Z,8.90
2017-09-28T16:40:50.697Z,14.33
2017-09-28T16:43:19.738Z,6.77
2017-09-28T16:45:48.787Z,5.57
2017-09-28T16:48:18.068Z,6.77
2017-09-28T16:50:47.129Z,7.67
2017-09-28T16:53:16.170Z,8.00
2017-09-28T16:55:45.241Z,7.17
2017-09-28T16:58:14.274Z,8.43
2017-09-28T17:00:43.306Z,7.10
2017-09-28T17:03:12.398Z,6.53
2017-09-28T17:05:41.799Z,7.97
2017-09-28T17:08:11.540Z,6.60
2017-09-28T17:10:40.648Z,6.50
2017-09-28T17:13:09.864Z,7.00
2017-09-28T17:15:39.166Z,6.40
2017-09-28T17:18:08.243Z,7.53
2017-09-28T17:20:37.822Z,9.13
2017-09-28T17:23:06.893Z,7.03
2017-09-28T17:25:35.986Z,10.07
2017-09-28T17:28:06.211Z,17.57
2017-09-28T17:30:35.313Z,13.40
2017-09-28T17:33:04.393Z,14.20
2017-09-28T17:35:33.482Z,9.27
2017-09-28T17:38:02.635Z,9.00
2017-09-28T17:40:31.819Z,7.07
2017-09-28T17:43:00.993Z,6.80
2017-09-28T17:45:30.115Z,8.10
2017-09-28T17:48:00.164Z,9.37
2017-09-28T17:50:29.287Z,11.83
2017-09-28T17:52:58.407Z,8.80
2017-09-28T17:55:27.465Z,8.43
2017-09-28T17:57:56.634Z,8.93
2017-09-28T18:00:27.783Z,8.17
2017-09-28T18:02:56.883Z,11.50
2017-09-28T18:05:26.401Z,11.60
2017-09-28T18:07:55.445Z,9.77
2017-09-28T18:10:25.543Z,8.47
2017-09-28T18:12:55.570Z,8.43
2017-09-28T18:15:24.607Z,11.23
2017-09-28T18:17:55.794Z,10.53
2017-09-28T18:20:24.885Z,7.77
2017-09-28T18:22:53.978Z,8.50
2017-09-28T18:25:24.182Z,7.23
2017-09-28T18:27:53.304Z,10.17
2017-09-28T18:30:23.349Z,10.23
2017-09-28T18:32:52.407Z,11.77
2017-09-28T18:35:22.454Z,10.13
2017-09-28T18:37:51.764Z,13.50
2017-09-28T18:40:20.873Z,8.83
2017-09-28T18:42:50.212Z,11.50
2017-09-28T18:45:19.460Z,11.37
2017-09-28T18:47:48.543Z,11.30
2017-09-28T18:50:17.974Z,14.10
2017-09-28T18:52:47.074Z,14.10
2017-09-28T18:55:16.152Z,13.93
2017-09-28T18:57:45.285Z,12.67
2017-09-28T19:00:15.219Z,11.90
2017-09-28T19:02:44.341Z,14.37
2017-09-28T19:05:13.471Z,11.77
2017-09-28T19:07:42.504Z,9.93
2017-09-28T19:10:11.741Z,12.60
2017-09-28T19:12:40.790Z,14.30
2017-09-28T19:15:09.847Z,10.40
2017-09-28T19:17:39.196Z,9.40
2017-09-28T19:20:08.291Z,10.07
2017-09-28T19:22:37.323Z,11.03
2017-09-28T19:25:06.832Z,10.07
2017-09-28T19:27:35.873Z,11.77
2017-09-28T19:30:05.318Z,11.10
2017-09-28T19:32:34.459Z,9.60
2017-09-28T19:35:03.498Z,10.97
2017-09-28T19:37:32.577Z,11.57
2017-09-28T19:40:01.647Z,13.63
2017-09-28T19:42:30.707Z,12.20
2017-09-28T19:44:59.761Z,10.67
2017-09-28T19:47:28.805Z,10.60
2017-09-28T19:49:57.976Z,8.93
2017-09-28T19:52:27.100Z,8.70
2017-09-28T19:54:56.173Z,8.10
2017-09-28T19:57:26.588Z,13.90
2017-09-28T19:59:55.656Z,12.33
2017-09-28T20:02:24.808Z,12.00
2017-09-28T20:04:53.870Z,11.70
2017-09-28T20:07:22.923Z,9.97
2017-09-28T20:09:52.983Z,10.20
2017-09-28T20:12:22.902Z,14.73
2017-09-28T20:14:53.270Z,11.60
2017-09-28T20:17:22.394Z,12.27
2017-09-28T20:19:51.545Z,10.03
2017-09-28T20:22:20.752Z,10.10
2017-09-28T20:24:49.831Z,9.13
2017-09-28T20:27:20.075Z,10.07
2017-09-28T20:29:49.154Z,8.80
2017-09-28T20:32:18.234Z,10.63
2017-09-28T20:34:47.342Z,10.93
2017-09-28T20:37:16.416Z,8.83
2017-09-28T20:39:45.496Z,9.30
2017-09-28T20:42:14.584Z,9.83
2017-09-28T20:44:43.640Z,9.80
2017-09-28T20:47:12.698Z,13.37
2017-09-28T20:49:41.755Z,11.10
2017-09-28T20:52:10.816Z,11.50
2017-09-28T20:54:39.884Z,13.97
2017-09-28T20:57:08.956Z,12.07
2017-09-28T20:59:38.009Z,10.43
2017-09-28T21:02:07.054Z,11.77
2017-09-28T21:04:38.218Z,11.13
2017-09-28T21:07:11.757Z,10.23
2017-09-28T21:09:40.815Z,10.60
2017-09-28T21:12:10.063Z,11.00
2017-09-28T21:14:39.105Z,10.80
2017-09-28T21:17:08.180Z,9.83
2017-09-28T21:19:38.755Z,9.33
2017-09-28T21:22:07.803Z,9.47
2017-09-28T21:24:37.121Z,9.87
2017-09-28T21:27:08.458Z,11.00
2017-09-28T21:29:42.542Z,10.33
2017-09-28T21:32:15.129Z,9.67
2017-09-28T21:34:47.082Z,10.00
2017-09-28T21:37:16.983Z,11.40
2017-09-28T21:39:46.210Z,8.70
2017-09-28T21:42:15.231Z,9.67
2017-09-28T21:44:44.358Z,8.37
2017-09-28T21:47:13.441Z,9.10
2017-09-28T21:49:42.535Z,9.10
2017-09-28T21:52:11.687Z,9.10
2017-09-28T21:54:41.146Z,9.47
2017-09-28T21:57:14.062Z,10.83
2017-09-28T21:59:43.478Z,12.20
2017-09-28T22:02:12.832Z,12.40
2017-09-28T22:04:42.211Z,14.90
2017-09-28T22:07:12.307Z,15.80
2017-09-28T22:09:41.448Z,18.40
2017-09-28T22:12:10.557Z,19.90
2017-09-28T22:14:41.011Z,13.20
2017-09-28T22:17:11.414Z,15.10
2017-09-28T22:19:41.381Z,20.83
2017-09-28T22:22:11.888Z,14.00
2017-09-28T22:24:42.368Z,18.90
2017-09-28T22:27:11.522Z,14.70
2017-09-28T22:29:40.608Z,17.53
2017-09-28T22:32:11.302Z,12.17
2017-09-28T22:34:41.437Z,15.27
2017-09-28T22:37:10.970Z,13.33
2017-09-28T22:39:40.615Z,12.20
2017-09-28T22:42:10.808Z,12.93
2017-09-28T22:44:40.016Z,12.50
2017-09-28T22:47:10.852Z,13.30
2017-09-28T22:49:39.942Z,13.10
2017-09-28T22:52:10.073Z,13.80
2017-09-28T22:54:39.959Z,10.30
2017-09-28T22:57:10.818Z,19.93
2017-09-28T22:59:41.958Z,17.00
2017-09-28T23:02:12.492Z,13.60
2017-09-28T23:04:41.791Z,17.17
2017-09-28T23:07:10.827Z,18.27
2017-09-28T23:09:40.519Z,19.63
2017-09-28T23:12:09.860Z,26.20
2017-09-28T23:14:40.158Z,25.27
2017-09-28T23:17:10.201Z,18.13
2017-09-28T23:19:39.475Z,30.93
2017-09-28T23:22:08.944Z,13.33
2017-09-28T23:24:39.302Z,12.20
2017-09-28T23:27:08.433Z,11.83
2017-09-28T23:29:37.795Z,11.27
2017-09-28T23:32:06.860Z,11.83
2017-09-28T23:34:36.131Z,11.00
2017-09-28T23:37:05.171Z,11.60
2017-09-28T23:39:35.932Z,15.17
2017-09-28T23:42:04.965Z,10.67
2017-09-28T23:44:34.039Z,11.77
2017-09-28T23:47:03.999Z,11.27
2017-09-28T23:49:33.050Z,12.53
2017-09-28T23:52:02.107Z,12.60
2017-09-28T23:54:31.170Z,9.80
2017-09-28T23:57:03.867Z,18.40
2017-09-28T23:59:32.951Z,12.83
